sensor_id;sensor_type;location;lat;lon;timestamp;temperature;humidity
18717;DHT22;9487;50.892;6.906;2023-02-01T00:02:10;7.60;99.90
18717;DHT22;9487;50.892;6.906;2023-02-01T00:04:36;7.60;99.90
18717;DHT22;9487;50.892;6.906;2023-02-01T00:07:03;7.60;99.90
18717;DHT22;9487;50.892;6.906;2023-02-01T00:09:30;7.60;99.90
18717;DHT22;9487;50.892;6.906;2023-02-01T00:11:57;7.50;99.90
18717;DHT22;9487;50.892;6.906;2023-02-01T00:14:27;7.60;99.90
18717;DHT22;9487;50.892;6.906;2023-02-01T00:16:55;7.50;99.90
18717;DHT22;9487;50.892;6.906;2023-02-01T00:19:22;7.50;99.90
18717;DHT22;9487;50.892;6.906;2023-02-01T00:21:49;7.40;99.90
18717;DHT22;9487;50.892;6.906;2023-02-01T00:24:16;7.40;99.90
18717;DHT22;9487;50.892;6.906;2023-02-01T00:26:44;7.40;99.90
18717;DHT22;9487;50.892;6.906;2023-02-01T00:29:13;7.30;99.90
18717;DHT22;9487;50.892;6.906;2023-02-01T00:31:40;7.20;99.90
18717;DHT22;9487;50.892;6.906;2023-02-01T00:34:09;7.20;99.90
18717;DHT22;9487;50.892;6.906;2023-02-01T00:36:38;7.20;99.90
18717;DHT22;9487;50.892;6.906;2023-02-01T00:39:04;7.10;99.90
18717;DHT22;9487;50.892;6.906;2023-02-01T00:41:31;7.10;99.90
18717;DHT22;9487;50.892;6.906;2023-02-01T00:43:58;7.10;99.90
18717;DHT22;9487;50.892;6.906;2023-02-01T00:46:25;7.00;99.90
18717;DHT22;9487;50.892;6.906;2023-02-01T00:48:52;7.00;99.90
18717;DHT22;9487;50.892;6.906;2023-02-01T00:51:23;7.00;99.90
18717;DHT22;9487;50.892;6.906;2023-02-01T00:53:52;7.00;99.90
18717;DHT22;9487;50.892;6.906;2023-02-01T00:56:19;7.00;99.90
18717;DHT22;9487;50.892;6.906;2023-02-01T00:58:46;7.00;99.90
18717;DHT22;9487;50.892;6.906;2023-02-01T01:01:15;7.00;99.90
18717;DHT22;9487;50.892;6.906;2023-02-01T01:03:44;7.00;99.90
18717;DHT22;9487;50.892;6.906;2023-02-01T01:06:13;7.00;99.90
18717;DHT22;9487;50.892;6.906;2023-02-01T01:08:42;7.10;99.90
18717;DHT22;9487;50.892;6.906;2023-02-01T01:11:10;7.10;99.90
18717;DHT22;9487;50.892;6.906;2023-02-01T01:13:38;7.10;99.90
18717;DHT22;9487;50.892;6.906;2023-02-01T01:16:06;7.00;99.90
18717;DHT22;9487;50.892;6.906;2023-02-01T01:18:34;7.00;99.90
18717;DHT22;9487;50.892;6.906;2023-02-01T01:21:01;7.00;99.90
18717;DHT22;9487;50.892;6.906;2023-02-01T01:23:28;7.00;99.90
18717;DHT22;9487;50.892;6.906;2023-02-01T01:25:58;6.90;99.90
18717;DHT22;9487;50.892;6.906;2023-02-01T01:28:25;7.00;99.90
18717;DHT22;9487;50.892;6.906;2023-02-01T01:30:51;7.00;99.90
18717;DHT22;9487;50.892;6.906;2023-02-01T01:33:18;7.00;99.90
18717;DHT22;9487;50.892;6.906;2023-02-01T01:35:45;7.00;99.90
18717;DHT22;9487;50.892;6.906;2023-02-01T01:38:12;7.00;99.90
18717;DHT22;9487;50.892;6.906;2023-02-01T01:40:39;7.00;99.90
18717;DHT22;9487;50.892;6.906;2023-02-01T01:43:13;7.10;99.90
18717;DHT22;9487;50.892;6.906;2023-02-01T01:45:40;7.10;99.90
18717;DHT22;9487;50.892;6.906;2023-02-01T01:48:10;7.30;99.90
18717;DHT22;9487;50.892;6.906;2023-02-01T01:50:47;7.40;99.90
18717;DHT22;9487;50.892;6.906;2023-02-01T01:53:20;7.60;99.90
18717;DHT22;9487;50.892;6.906;2023-02-01T01:55:47;7.90;99.90
18717;DHT22;9487;50.892;6.906;2023-02-01T01:58:19;7.80;99.90
18717;DHT22;9487;50.892;6.906;2023-02-01T02:00:48;7.60;99.90
18717;DHT22;9487;50.892;6.906;2023-02-01T02:03:17;7.40;99.90
18717;DHT22;9487;50.892;6.906;2023-02-01T02:05:46;7.30;99.90
18717;DHT22;9487;50.892;6.906;2023-02-01T02:08:14;7.20;99.90
18717;DHT22;9487;50.892;6.906;2023-02-01T02:10:40;7.10;99.90
18717;DHT22;9487;50.892;6.906;2023-02-01T02:13:28;7.10;99.90
18717;DHT22;9487;50.892;6.906;2023-02-01T02:16:05;7.00;99.90
18717;DHT22;9487;50.892;6.906;2023-02-01T02:18:44;7.00;99.90
18717;DHT22;9487;50.892;6.906;2023-02-01T02:21:17;6.90;99.90
18717;DHT22;9487;50.892;6.906;2023-02-01T02:24:16;6.90;99.90
18717;DHT22;9487;50.892;6.906;2023-02-01T02:27:04;6.90;99.90
18717;DHT22;9487;50.892;6.906;2023-02-01T02:33:24;6.90;99.90
18717;DHT22;9487;50.892;6.906;2023-02-01T02:36:00;6.90;99.90
18717;DHT22;9487;50.892;6.906;2023-02-01T02:38:32;6.90;99.90
18717;DHT22;9487;50.892;6.906;2023-02-01T02:41:07;6.90;99.90
18717;DHT22;9487;50.892;6.906;2023-02-01T02:43:41;6.90;99.90
18717;DHT22;9487;50.892;6.906;2023-02-01T02:46:35;6.90;99.90
18717;DHT22;9487;50.892;6.906;2023-02-01T02:49:26;6.90;99.90
18717;DHT22;9487;50.892;6.906;2023-02-01T02:51:58;6.90;99.90
18717;DHT22;9487;50.892;6.906;2023-02-01T02:54:56;6.90;99.90
18717;DHT22;9487;50.892;6.906;2023-02-01T02:57:26;7.00;99.90
18717;DHT22;9487;50.892;6.906;2023-02-01T03:03:00;7.00;99.90
18717;DHT22;9487;50.892;6.906;2023-02-01T03:05:47;7.00;99.90
18717;DHT22;9487;50.892;6.906;2023-02-01T03:08:17;7.00;99.90
18717;DHT22;9487;50.892;6.906;2023-02-01T03:10:52;7.00;99.90
18717;DHT22;9487;50.892;6.906;2023-02-01T03:13:26;6.90;99.90
18717;DHT22;9487;50.892;6.906;2023-02-01T03:15:58;7.00;99.90
18717;DHT22;9487;50.892;6.906;2023-02-01T03:18:30;7.00;99.90
18717;DHT22;9487;50.892;6.906;2023-02-01T03:21:04;7.00;99.90
18717;DHT22;9487;50.892;6.906;2023-02-01T03:23:35;7.00;99.90
18717;DHT22;9487;50.892;6.906;2023-02-01T03:26:05;7.10;99.90
18717;DHT22;9487;50.892;6.906;2023-02-01T03:28:34;7.10;99.90
18717;DHT22;9487;50.892;6.906;2023-02-01T03:31:02;7.10;99.90
18717;DHT22;9487;50.892;6.906;2023-02-01T03:33:30;7.10;99.90
18717;DHT22;9487;50.892;6.906;2023-02-01T03:36:05;7.10;99.90
18717;DHT22;9487;50.892;6.906;2023-02-01T03:38:39;7.00;99.90
18717;DHT22;9487;50.892;6.906;2023-02-01T03:41:11;7.10;99.90
18717;DHT22;9487;50.892;6.906;2023-02-01T03:43:47;7.00;99.90
18717;DHT22;9487;50.892;6.906;2023-02-01T03:46:22;7.10;99.90
18717;DHT22;9487;50.892;6.906;2023-02-01T03:48:51;7.00;99.90
18717;DHT22;9487;50.892;6.906;2023-02-01T03:51:21;7.10;99.90
18717;DHT22;9487;50.892;6.906;2023-02-01T03:53:50;6.90;99.90
18717;DHT22;9487;50.892;6.906;2023-02-01T03:56:21;7.00;99.90
18717;DHT22;9487;50.892;6.906;2023-02-01T03:58:48;7.00;99.90
18717;DHT22;9487;50.892;6.906;2023-02-01T04:01:26;7.00;99.90
18717;DHT22;9487;50.892;6.906;2023-02-01T04:03:53;7.00;99.90
18717;DHT22;9487;50.892;6.906;2023-02-01T04:06:21;6.80;99.90
18717;DHT22;9487;50.892;6.906;2023-02-01T04:08:48;6.70;99.90
18717;DHT22;9487;50.892;6.906;2023-02-01T04:11:15;6.80;99.90
18717;DHT22;9487;50.892;6.906;2023-02-01T04:13:42;6.70;99.90
18717;DHT22;9487;50.892;6.906;2023-02-01T04:16:09;6.80;99.90
18717;DHT22;9487;50.892;6.906;2023-02-01T04:18:36;6.80;99.90
18717;DHT22;9487;50.892;6.906;2023-02-01T04:21:03;6.80;99.90
18717;DHT22;9487;50.892;6.906;2023-02-01T04:23:31;6.80;99.90
18717;DHT22;9487;50.892;6.906;2023-02-01T04:26:01;6.80;99.90
18717;DHT22;9487;50.892;6.906;2023-02-01T04:28:29;6.80;99.90
18717;DHT22;9487;50.892;6.906;2023-02-01T04:30:55;6.80;99.90
18717;DHT22;9487;50.892;6.906;2023-02-01T04:33:22;6.90;99.90
18717;DHT22;9487;50.892;6.906;2023-02-01T04:35:49;6.90;99.90
18717;DHT22;9487;50.892;6.906;2023-02-01T04:38:16;6.90;99.90
18717;DHT22;9487;50.892;6.906;2023-02-01T04:40:47;6.90;99.90
18717;DHT22;9487;50.892;6.906;2023-02-01T04:43:13;6.90;99.90
18717;DHT22;9487;50.892;6.906;2023-02-01T04:45:40;6.80;99.90
18717;DHT22;9487;50.892;6.906;2023-02-01T04:48:07;6.70;99.90
18717;DHT22;9487;50.892;6.906;2023-02-01T04:50:34;6.80;99.90
18717;DHT22;9487;50.892;6.906;2023-02-01T04:53:01;6.80;99.90
18717;DHT22;9487;50.892;6.906;2023-02-01T04:55:27;6.80;99.90
18717;DHT22;9487;50.892;6.906;2023-02-01T04:57:56;6.80;99.90
18717;DHT22;9487;50.892;6.906;2023-02-01T05:00:22;6.70;99.90
18717;DHT22;9487;50.892;6.906;2023-02-01T05:02:50;6.80;99.90
18717;DHT22;9487;50.892;6.906;2023-02-01T05:05:17;6.70;99.90
18717;DHT22;9487;50.892;6.906;2023-02-01T05:07:43;6.70;99.90
18717;DHT22;9487;50.892;6.906;2023-02-01T05:10:11;6.70;99.90
18717;DHT22;9487;50.892;6.906;2023-02-01T05:12:38;6.70;99.90
18717;DHT22;9487;50.892;6.906;2023-02-01T05:15:24;6.60;99.90
18717;DHT22;9487;50.892;6.906;2023-02-01T05:17:50;6.60;99.90
18717;DHT22;9487;50.892;6.906;2023-02-01T05:20:17;6.70;99.90
18717;DHT22;9487;50.892;6.906;2023-02-01T05:22:44;6.60;99.90
18717;DHT22;9487;50.892;6.906;2023-02-01T05:25:11;6.50;99.90
18717;DHT22;9487;50.892;6.906;2023-02-01T05:27:38;6.50;99.90
18717;DHT22;9487;50.892;6.906;2023-02-01T05:30:06;6.50;99.90
18717;DHT22;9487;50.892;6.906;2023-02-01T05:32:35;6.50;99.90
18717;DHT22;9487;50.892;6.906;2023-02-01T05:35:02;6.40;1.00
18717;DHT22;9487;50.892;6.906;2023-02-01T05:37:29;6.40;1.00
18717;DHT22;9487;50.892;6.906;2023-02-01T05:39:55;6.40;1.00
18717;DHT22;9487;50.892;6.906;2023-02-01T05:42:22;6.40;1.00
18717;DHT22;9487;50.892;6.906;2023-02-01T05:44:49;6.40;1.00
18717;DHT22;9487;50.892;6.906;2023-02-01T05:47:16;6.40;1.00
18717;DHT22;9487;50.892;6.906;2023-02-01T05:49:44;6.30;1.00
18717;DHT22;9487;50.892;6.906;2023-02-01T05:52:11;6.40;1.00
18717;DHT22;9487;50.892;6.906;2023-02-01T05:54:37;6.30;1.00
18717;DHT22;9487;50.892;6.906;2023-02-01T05:57:04;6.40;1.00
18717;DHT22;9487;50.892;6.906;2023-02-01T05:59:31;6.20;1.00
18717;DHT22;9487;50.892;6.906;2023-02-01T06:01:58;6.30;1.00
18717;DHT22;9487;50.892;6.906;2023-02-01T06:04:25;6.30;1.00
18717;DHT22;9487;50.892;6.906;2023-02-01T06:06:53;6.30;1.00
18717;DHT22;9487;50.892;6.906;2023-02-01T06:09:20;6.30;99.90
18717;DHT22;9487;50.892;6.906;2023-02-01T06:11:46;6.30;96.80
18717;DHT22;9487;50.892;6.906;2023-02-01T06:14:13;6.20;99.90
18717;DHT22;9487;50.892;6.906;2023-02-01T06:16:40;6.10;99.90
18717;DHT22;9487;50.892;6.906;2023-02-01T06:19:07;6.20;99.90
18717;DHT22;9487;50.892;6.906;2023-02-01T06:21:35;6.30;99.90
18717;DHT22;9487;50.892;6.906;2023-02-01T06:24:03;6.20;65.60
18717;DHT22;9487;50.892;6.906;2023-02-01T06:26:31;6.30;99.90
18717;DHT22;9487;50.892;6.906;2023-02-01T06:28:58;6.30;99.90
18717;DHT22;9487;50.892;6.906;2023-02-01T06:31:25;6.20;1.00
18717;DHT22;9487;50.892;6.906;2023-02-01T06:33:52;6.30;1.00
18717;DHT22;9487;50.892;6.906;2023-02-01T06:36:19;6.10;1.00
18717;DHT22;9487;50.892;6.906;2023-02-01T06:38:47;6.10;99.90
18717;DHT22;9487;50.892;6.906;2023-02-01T06:41:15;6.10;1.00
18717;DHT22;9487;50.892;6.906;2023-02-01T06:43:42;6.10;1.00
18717;DHT22;9487;50.892;6.906;2023-02-01T06:46:12;6.20;99.90
18717;DHT22;9487;50.892;6.906;2023-02-01T06:48:39;6.20;99.90
18717;DHT22;9487;50.892;6.906;2023-02-01T06:51:10;6.20;1.00
18717;DHT22;9487;50.892;6.906;2023-02-01T06:53:42;6.20;99.90
18717;DHT22;9487;50.892;6.906;2023-02-01T06:56:09;6.20;99.90
18717;DHT22;9487;50.892;6.906;2023-02-01T06:58:37;6.30;99.90
18717;DHT22;9487;50.892;6.906;2023-02-01T07:01:05;6.30;99.90
18717;DHT22;9487;50.892;6.906;2023-02-01T07:03:32;6.30;1.00
18717;DHT22;9487;50.892;6.906;2023-02-01T07:05:59;6.30;99.90
18717;DHT22;9487;50.892;6.906;2023-02-01T07:08:27;6.30;99.90
18717;DHT22;9487;50.892;6.906;2023-02-01T07:10:54;6.30;41.90
18717;DHT22;9487;50.892;6.906;2023-02-01T07:13:21;6.20;98.10
18717;DHT22;9487;50.892;6.906;2023-02-01T07:15:49;6.20;99.90
18717;DHT22;9487;50.892;6.906;2023-02-01T07:18:16;6.30;99.90
18717;DHT22;9487;50.892;6.906;2023-02-01T07:20:42;6.30;1.00
18717;DHT22;9487;50.892;6.906;2023-02-01T07:23:10;6.40;49.10
18717;DHT22;9487;50.892;6.906;2023-02-01T07:25:36;6.40;99.90
18717;DHT22;9487;50.892;6.906;2023-02-01T07:28:03;6.30;1.00
18717;DHT22;9487;50.892;6.906;2023-02-01T07:30:30;6.30;1.00
18717;DHT22;9487;50.892;6.906;2023-02-01T07:32:58;6.30;1.00
18717;DHT22;9487;50.892;6.906;2023-02-01T07:35:26;6.30;1.00
18717;DHT22;9487;50.892;6.906;2023-02-01T07:37:53;6.40;1.00
18717;DHT22;9487;50.892;6.906;2023-02-01T07:40:20;6.40;1.00
18717;DHT22;9487;50.892;6.906;2023-02-01T07:42:53;6.30;1.00
18717;DHT22;9487;50.892;6.906;2023-02-01T07:45:20;6.40;1.00
18717;DHT22;9487;50.892;6.906;2023-02-01T07:47:47;6.30;1.00
18717;DHT22;9487;50.892;6.906;2023-02-01T07:50:16;6.30;1.00
18717;DHT22;9487;50.892;6.906;2023-02-01T07:52:43;6.30;99.90
18717;DHT22;9487;50.892;6.906;2023-02-01T07:55:09;6.40;1.00
18717;DHT22;9487;50.892;6.906;2023-02-01T07:57:36;6.40;1.00
18717;DHT22;9487;50.892;6.906;2023-02-01T08:00:04;6.40;99.90
18717;DHT22;9487;50.892;6.906;2023-02-01T08:02:53;6.30;99.90
18717;DHT22;9487;50.892;6.906;2023-02-01T08:05:21;6.20;1.00
18717;DHT22;9487;50.892;6.906;2023-02-01T08:07:48;6.20;1.00
18717;DHT22;9487;50.892;6.906;2023-02-01T08:10:16;6.30;1.00
18717;DHT22;9487;50.892;6.906;2023-02-01T08:12:43;6.30;1.00
18717;DHT22;9487;50.892;6.906;2023-02-01T08:15:13;6.30;1.00
18717;DHT22;9487;50.892;6.906;2023-02-01T08:17:45;6.30;1.00
18717;DHT22;9487;50.892;6.906;2023-02-01T08:20:12;6.20;99.90
18717;DHT22;9487;50.892;6.906;2023-02-01T08:22:41;6.10;1.00
18717;DHT22;9487;50.892;6.906;2023-02-01T08:25:08;6.20;1.00
18717;DHT22;9487;50.892;6.906;2023-02-01T08:27:35;6.30;99.90
18717;DHT22;9487;50.892;6.906;2023-02-01T08:30:03;6.40;1.00
18717;DHT22;9487;50.892;6.906;2023-02-01T08:32:30;6.30;1.00
18717;DHT22;9487;50.892;6.906;2023-02-01T08:34:57;6.40;1.00
18717;DHT22;9487;50.892;6.906;2023-02-01T08:37:24;6.40;99.90
18717;DHT22;9487;50.892;6.906;2023-02-01T08:39:52;6.30;1.00
18717;DHT22;9487;50.892;6.906;2023-02-01T08:42:19;6.40;99.90
18717;DHT22;9487;50.892;6.906;2023-02-01T08:45:04;6.50;99.10
18717;DHT22;9487;50.892;6.906;2023-02-01T08:47:33;6.40;1.00
18717;DHT22;9487;50.892;6.906;2023-02-01T08:50:00;6.40;99.90
18717;DHT22;9487;50.892;6.906;2023-02-01T08:52:27;6.60;99.90
18717;DHT22;9487;50.892;6.906;2023-02-01T08:54:55;6.50;99.90
18717;DHT22;9487;50.892;6.906;2023-02-01T08:57:22;6.60;1.00
18717;DHT22;9487;50.892;6.906;2023-02-01T08:59:49;6.60;99.90
18717;DHT22;9487;50.892;6.906;2023-02-01T09:02:16;6.60;1.00
18717;DHT22;9487;50.892;6.906;2023-02-01T09:04:43;6.70;99.90
18717;DHT22;9487;50.892;6.906;2023-02-01T09:07:10;6.70;99.90
18717;DHT22;9487;50.892;6.906;2023-02-01T09:09:38;6.80;1.00
18717;DHT22;9487;50.892;6.906;2023-02-01T09:12:07;6.80;99.90
18717;DHT22;9487;50.892;6.906;2023-02-01T09:14:34;6.90;1.00
18717;DHT22;9487;50.892;6.906;2023-02-01T09:17:00;6.90;1.00
18717;DHT22;9487;50.892;6.906;2023-02-01T09:19:27;7.00;1.00
18717;DHT22;9487;50.892;6.906;2023-02-01T09:21:54;7.00;1.00
18717;DHT22;9487;50.892;6.906;2023-02-01T09:24:21;7.10;99.90
18717;DHT22;9487;50.892;6.906;2023-02-01T09:26:48;7.00;99.90
18717;DHT22;9487;50.892;6.906;2023-02-01T09:29:16;7.10;1.00
18717;DHT22;9487;50.892;6.906;2023-02-01T09:31:43;7.00;99.90
18717;DHT22;9487;50.892;6.906;2023-02-01T09:34:10;7.00;1.00
18717;DHT22;9487;50.892;6.906;2023-02-01T09:36:37;7.00;99.90
18717;DHT22;9487;50.892;6.906;2023-02-01T09:39:04;7.10;1.00
18717;DHT22;9487;50.892;6.906;2023-02-01T09:41:41;7.10;99.90
18717;DHT22;9487;50.892;6.906;2023-02-01T09:44:21;7.10;1.00
18717;DHT22;9487;50.892;6.906;2023-02-01T09:46:53;7.20;99.90
18717;DHT22;9487;50.892;6.906;2023-02-01T09:49:26;7.70;99.90
18717;DHT22;9487;50.892;6.906;2023-02-01T09:51:54;7.90;99.90
18717;DHT22;9487;50.892;6.906;2023-02-01T09:54:24;7.80;99.90
18717;DHT22;9487;50.892;6.906;2023-02-01T09:56:53;7.70;99.90
18717;DHT22;9487;50.892;6.906;2023-02-01T09:59:34;7.80;99.90
18717;DHT22;9487;50.892;6.906;2023-02-01T10:02:12;7.30;99.90
18717;DHT22;9487;50.892;6.906;2023-02-01T10:04:39;7.30;99.90
18717;DHT22;9487;50.892;6.906;2023-02-01T10:07:15;7.30;99.90
18717;DHT22;9487;50.892;6.906;2023-02-01T10:10:01;7.20;99.90
18717;DHT22;9487;50.892;6.906;2023-02-01T10:15:53;7.20;99.90
18717;DHT22;9487;50.892;6.906;2023-02-01T10:18:49;7.30;99.90
18717;DHT22;9487;50.892;6.906;2023-02-01T10:21:28;7.40;99.90
18717;DHT22;9487;50.892;6.906;2023-02-01T10:24:20;7.30;99.90
18717;DHT22;9487;50.892;6.906;2023-02-01T10:26:53;7.50;99.90
18717;DHT22;9487;50.892;6.906;2023-02-01T10:29:26;7.50;99.90
18717;DHT22;9487;50.892;6.906;2023-02-01T10:31:58;7.80;99.90
18717;DHT22;9487;50.892;6.906;2023-02-01T10:34:27;7.80;99.90
18717;DHT22;9487;50.892;6.906;2023-02-01T10:36:56;7.90;99.90
18717;DHT22;9487;50.892;6.906;2023-02-01T10:39:24;7.90;99.90
18717;DHT22;9487;50.892;6.906;2023-02-01T10:41:51;8.00;99.90
18717;DHT22;9487;50.892;6.906;2023-02-01T10:44:23;7.90;99.90
18717;DHT22;9487;50.892;6.906;2023-02-01T10:46:50;8.00;99.90
18717;DHT22;9487;50.892;6.906;2023-02-01T10:49:22;8.00;99.90
18717;DHT22;9487;50.892;6.906;2023-02-01T10:51:55;8.10;99.90
18717;DHT22;9487;50.892;6.906;2023-02-01T10:54:32;8.10;99.90
18717;DHT22;9487;50.892;6.906;2023-02-01T10:56:59;8.20;99.90
18717;DHT22;9487;50.892;6.906;2023-02-01T10:59:29;8.10;99.90
18717;DHT22;9487;50.892;6.906;2023-02-01T11:01:59;8.30;99.90
18717;DHT22;9487;50.892;6.906;2023-02-01T11:04:32;8.20;99.90
18717;DHT22;9487;50.892;6.906;2023-02-01T11:07:17;8.20;99.90
18717;DHT22;9487;50.892;6.906;2023-02-01T11:09:50;8.20;99.90
18717;DHT22;9487;50.892;6.906;2023-02-01T11:12:27;8.20;99.90
18717;DHT22;9487;50.892;6.906;2023-02-01T11:14:59;8.10;99.90
18717;DHT22;9487;50.892;6.906;2023-02-01T11:17:33;8.00;99.90
18717;DHT22;9487;50.892;6.906;2023-02-01T11:20:05;8.10;99.90
18717;DHT22;9487;50.892;6.906;2023-02-01T11:22:33;8.20;99.90
18717;DHT22;9487;50.892;6.906;2023-02-01T11:25:01;8.10;99.90
18717;DHT22;9487;50.892;6.906;2023-02-01T11:27:34;8.10;99.90
18717;DHT22;9487;50.892;6.906;2023-02-01T11:30:01;8.10;99.90
18717;DHT22;9487;50.892;6.906;2023-02-01T11:32:30;8.10;99.90
18717;DHT22;9487;50.892;6.906;2023-02-01T11:35:01;8.10;99.90
18717;DHT22;9487;50.892;6.906;2023-02-01T11:37:31;8.30;99.90
18717;DHT22;9487;50.892;6.906;2023-02-01T11:40:00;8.30;99.90
18717;DHT22;9487;50.892;6.906;2023-02-01T11:42:28;8.40;99.90
18717;DHT22;9487;50.892;6.906;2023-02-01T11:45:18;8.40;99.90
18717;DHT22;9487;50.892;6.906;2023-02-01T11:47:45;8.20;99.90
18717;DHT22;9487;50.892;6.906;2023-02-01T11:50:16;8.20;99.90
18717;DHT22;9487;50.892;6.906;2023-02-01T11:53:00;8.20;99.90
18717;DHT22;9487;50.892;6.906;2023-02-01T11:55:41;8.20;99.90
18717;DHT22;9487;50.892;6.906;2023-02-01T11:58:20;8.20;99.90
18717;DHT22;9487;50.892;6.906;2023-02-01T12:01:01;8.10;99.90
18717;DHT22;9487;50.892;6.906;2023-02-01T12:03:51;8.00;99.90
18717;DHT22;9487;50.892;6.906;2023-02-01T12:06:29;7.90;99.90
18717;DHT22;9487;50.892;6.906;2023-02-01T12:09:11;8.10;99.90
18717;DHT22;9487;50.892;6.906;2023-02-01T12:11:48;8.10;99.90
18717;DHT22;9487;50.892;6.906;2023-02-01T12:14:28;8.10;99.90
18717;DHT22;9487;50.892;6.906;2023-02-01T12:17:12;8.10;99.90
18717;DHT22;9487;50.892;6.906;2023-02-01T12:20:02;8.10;99.90
18717;DHT22;9487;50.892;6.906;2023-02-01T12:22:44;8.10;99.90
18717;DHT22;9487;50.892;6.906;2023-02-01T12:25:22;8.10;99.90
18717;DHT22;9487;50.892;6.906;2023-02-01T12:31:10;8.10;99.90
18717;DHT22;9487;50.892;6.906;2023-02-01T12:33:50;8.20;99.90
18717;DHT22;9487;50.892;6.906;2023-02-01T12:36:24;8.20;99.90
18717;DHT22;9487;50.892;6.906;2023-02-01T12:38:57;8.20;99.90
18717;DHT22;9487;50.892;6.906;2023-02-01T12:44:34;8.20;99.90
18717;DHT22;9487;50.892;6.906;2023-02-01T12:47:06;8.40;99.90
18717;DHT22;9487;50.892;6.906;2023-02-01T12:49:44;8.40;99.90
18717;DHT22;9487;50.892;6.906;2023-02-01T12:52:16;8.40;99.90
18717;DHT22;9487;50.892;6.906;2023-02-01T12:54:48;8.50;99.90
18717;DHT22;9487;50.892;6.906;2023-02-01T12:57:22;8.50;99.90
18717;DHT22;9487;50.892;6.906;2023-02-01T12:59:54;8.50;99.90
18717;DHT22;9487;50.892;6.906;2023-02-01T13:02:28;8.50;99.90
18717;DHT22;9487;50.892;6.906;2023-02-01T13:05:03;8.40;99.90
18717;DHT22;9487;50.892;6.906;2023-02-01T13:07:34;8.40;99.90
18717;DHT22;9487;50.892;6.906;2023-02-01T13:10:13;8.30;99.90
18717;DHT22;9487;50.892;6.906;2023-02-01T13:12:48;8.30;99.90
18717;DHT22;9487;50.892;6.906;2023-02-01T13:15:19;8.20;99.90
18717;DHT22;9487;50.892;6.906;2023-02-01T13:17:48;8.20;99.90
18717;DHT22;9487;50.892;6.906;2023-02-01T13:20:21;8.20;99.90
18717;DHT22;9487;50.892;6.906;2023-02-01T13:22:53;8.20;99.90
18717;DHT22;9487;50.892;6.906;2023-02-01T13:25:29;8.20;99.90
18717;DHT22;9487;50.892;6.906;2023-02-01T13:28:02;8.20;99.90
18717;DHT22;9487;50.892;6.906;2023-02-01T13:30:38;8.20;99.90
18717;DHT22;9487;50.892;6.906;2023-02-01T13:33:31;8.20;99.90
18717;DHT22;9487;50.892;6.906;2023-02-01T13:36:29;8.20;99.90
18717;DHT22;9487;50.892;6.906;2023-02-01T13:39:40;8.20;99.90
18717;DHT22;9487;50.892;6.906;2023-02-01T13:42:18;8.20;99.90
18717;DHT22;9487;50.892;6.906;2023-02-01T13:44:49;8.20;99.90
18717;DHT22;9487;50.892;6.906;2023-02-01T13:47:26;8.20;99.90
18717;DHT22;9487;50.892;6.906;2023-02-01T13:49:56;8.20;99.90
18717;DHT22;9487;50.892;6.906;2023-02-01T13:52:31;8.20;99.90
18717;DHT22;9487;50.892;6.906;2023-02-01T13:55:14;8.10;99.90
18717;DHT22;9487;50.892;6.906;2023-02-01T13:57:43;8.20;99.90
18717;DHT22;9487;50.892;6.906;2023-02-01T14:00:25;8.20;99.90
18717;DHT22;9487;50.892;6.906;2023-02-01T14:03:10;8.20;99.90
18717;DHT22;9487;50.892;6.906;2023-02-01T14:06:05;8.20;99.90
18717;DHT22;9487;50.892;6.906;2023-02-01T14:08:43;8.20;99.90
18717;DHT22;9487;50.892;6.906;2023-02-01T14:11:37;8.30;99.90
18717;DHT22;9487;50.892;6.906;2023-02-01T14:14:39;8.30;99.90
18717;DHT22;9487;50.892;6.906;2023-02-01T14:17:36;8.30;99.90
18717;DHT22;9487;50.892;6.906;2023-02-01T14:23:22;8.40;99.90
18717;DHT22;9487;50.892;6.906;2023-02-01T14:26:08;8.50;99.90
18717;DHT22;9487;50.892;6.906;2023-02-01T14:28:39;8.40;99.90
18717;DHT22;9487;50.892;6.906;2023-02-01T14:34:16;8.50;99.90
18717;DHT22;9487;50.892;6.906;2023-02-01T14:36:47;8.50;99.90
18717;DHT22;9487;50.892;6.906;2023-02-01T14:39:30;8.50;99.90
18717;DHT22;9487;50.892;6.906;2023-02-01T14:42:01;8.50;99.90
18717;DHT22;9487;50.892;6.906;2023-02-01T14:44:32;8.50;99.90
18717;DHT22;9487;50.892;6.906;2023-02-01T14:47:09;8.60;99.90
18717;DHT22;9487;50.892;6.906;2023-02-01T14:49:40;8.60;99.90
18717;DHT22;9487;50.892;6.906;2023-02-01T14:52:13;8.60;99.90
18717;DHT22;9487;50.892;6.906;2023-02-01T14:54:41;8.60;99.90
18717;DHT22;9487;50.892;6.906;2023-02-01T14:57:15;8.60;99.90
18717;DHT22;9487;50.892;6.906;2023-02-01T14:59:42;8.60;99.90
18717;DHT22;9487;50.892;6.906;2023-02-01T15:02:20;8.60;99.90
18717;DHT22;9487;50.892;6.906;2023-02-01T15:04:54;8.60;99.90
18717;DHT22;9487;50.892;6.906;2023-02-01T15:07:22;8.70;99.90
18717;DHT22;9487;50.892;6.906;2023-02-01T15:09:50;9.20;99.90
18717;DHT22;9487;50.892;6.906;2023-02-01T15:12:22;9.30;99.90
18717;DHT22;9487;50.892;6.906;2023-02-01T15:15:09;9.20;99.90
18717;DHT22;9487;50.892;6.906;2023-02-01T15:17:38;9.10;99.90
18717;DHT22;9487;50.892;6.906;2023-02-01T15:20:13;9.10;99.90
18717;DHT22;9487;50.892;6.906;2023-02-01T15:22:40;9.20;99.90
18717;DHT22;9487;50.892;6.906;2023-02-01T15:25:19;9.10;99.90
18717;DHT22;9487;50.892;6.906;2023-02-01T15:27:46;9.00;99.90
18717;DHT22;9487;50.892;6.906;2023-02-01T15:30:17;8.80;99.90
18717;DHT22;9487;50.892;6.906;2023-02-01T15:32:46;8.80;99.90
18717;DHT22;9487;50.892;6.906;2023-02-01T15:35:39;8.70;99.90
18717;DHT22;9487;50.892;6.906;2023-02-01T15:38:33;8.70;99.90
18717;DHT22;9487;50.892;6.906;2023-02-01T15:41:03;8.70;99.90
18717;DHT22;9487;50.892;6.906;2023-02-01T15:43:33;8.60;99.90
18717;DHT22;9487;50.892;6.906;2023-02-01T15:46:02;8.60;99.90
18717;DHT22;9487;50.892;6.906;2023-02-01T15:48:36;8.70;99.90
18717;DHT22;9487;50.892;6.906;2023-02-01T15:51:04;8.70;99.90
18717;DHT22;9487;50.892;6.906;2023-02-01T15:53:31;8.70;99.90
18717;DHT22;9487;50.892;6.906;2023-02-01T15:56:00;8.70;99.90
18717;DHT22;9487;50.892;6.906;2023-02-01T15:58:28;8.60;99.90
18717;DHT22;9487;50.892;6.906;2023-02-01T16:00:59;8.80;99.90
18717;DHT22;9487;50.892;6.906;2023-02-01T16:03:36;8.70;99.90
18717;DHT22;9487;50.892;6.906;2023-02-01T16:06:05;8.70;99.90
18717;DHT22;9487;50.892;6.906;2023-02-01T16:08:33;8.70;99.90
18717;DHT22;9487;50.892;6.906;2023-02-01T16:11:21;8.60;99.90
18717;DHT22;9487;50.892;6.906;2023-02-01T16:13:49;8.50;99.90
18717;DHT22;9487;50.892;6.906;2023-02-01T16:16:15;8.40;99.90
18717;DHT22;9487;50.892;6.906;2023-02-01T16:18:44;8.30;99.90
18717;DHT22;9487;50.892;6.906;2023-02-01T16:21:11;8.30;99.90
18717;DHT22;9487;50.892;6.906;2023-02-01T16:23:38;8.20;99.90
18717;DHT22;9487;50.892;6.906;2023-02-01T16:26:05;8.10;99.90
18717;DHT22;9487;50.892;6.906;2023-02-01T16:28:32;8.00;99.90
18717;DHT22;9487;50.892;6.906;2023-02-01T16:30:59;8.00;99.90
18717;DHT22;9487;50.892;6.906;2023-02-01T16:33:26;7.90;99.90
18717;DHT22;9487;50.892;6.906;2023-02-01T16:35:56;7.80;99.90
18717;DHT22;9487;50.892;6.906;2023-02-01T16:38:27;7.70;99.90
18717;DHT22;9487;50.892;6.906;2023-02-01T16:40:54;7.70;99.90
18717;DHT22;9487;50.892;6.906;2023-02-01T16:43:24;7.70;99.90
18717;DHT22;9487;50.892;6.906;2023-02-01T16:45:55;7.50;99.90
18717;DHT22;9487;50.892;6.906;2023-02-01T16:48:23;7.50;99.90
18717;DHT22;9487;50.892;6.906;2023-02-01T16:50:53;7.50;99.90
18717;DHT22;9487;50.892;6.906;2023-02-01T16:53:23;7.50;99.90
18717;DHT22;9487;50.892;6.906;2023-02-01T16:55:50;7.50;99.90